createdAt,value
2023-05-25T00:00:28.385Z,0.94
2023-05-25T00:01:28.435Z,1.31
2023-05-25T00:02:28.555Z,1.01
2023-05-25T00:03:28.677Z,0.99
2023-05-25T00:04:28.660Z,0.75
2023-05-25T00:05:28.694Z,0.83
2023-05-25T00:06:28.745Z,0.89
2023-05-25T00:07:28.833Z,1.20
2023-05-25T00:08:28.895Z,1.03
2023-05-25T00:09:28.903Z,1.12
2023-05-25T00:10:28.981Z,1.06
2023-05-25T00:11:29.032Z,1.35
2023-05-25T00:12:29.112Z,1.20
2023-05-25T00:13:29.155Z,1.03
2023-05-25T00:14:29.199Z,1.11
2023-05-25T00:15:29.262Z,1.07
2023-05-25T00:16:29.345Z,1.71
2023-05-25T00:17:29.408Z,1.18
2023-05-25T00:18:29.440Z,0.95
2023-05-25T00:19:29.483Z,1.25
2023-05-25T00:20:29.604Z,1.36
2023-05-25T00:21:29.639Z,0.88
2023-05-25T00:22:29.669Z,0.96
2023-05-25T00:23:29.721Z,1.36
2023-05-25T00:24:29.798Z,1.18
2023-05-25T00:25:29.860Z,1.45
2023-05-25T00:26:29.909Z,1.01
2023-05-25T00:27:29.963Z,1.15
2023-05-25T00:28:30.048Z,1.12
2023-05-25T00:29:30.105Z,1.15
2023-05-25T00:30:30.126Z,0.98
2023-05-25T00:31:30.285Z,0.87
2023-05-25T00:32:30.287Z,1.05
2023-05-25T00:33:30.310Z,0.88
2023-05-25T00:34:30.345Z,1.32
2023-05-25T00:35:30.413Z,1.32
2023-05-25T00:36:30.506Z,1.11
2023-05-25T00:37:30.563Z,0.94
2023-05-25T00:38:30.591Z,1.28
2023-05-25T00:39:30.675Z,1.10
2023-05-25T00:40:30.693Z,1.34
2023-05-25T00:41:30.805Z,1.34
2023-05-25T00:42:30.872Z,1.24
2023-05-25T00:43:30.899Z,1.09
2023-05-25T00:44:30.958Z,1.27
2023-05-25T00:45:31.013Z,1.15
2023-05-25T00:46:31.087Z,1.54
2023-05-25T00:47:31.171Z,0.88
2023-05-25T00:48:31.201Z,1.23
2023-05-25T00:49:31.965Z,1.21
2023-05-25T00:50:31.315Z,1.37
2023-05-25T00:51:31.377Z,1.38
2023-05-25T00:52:31.451Z,0.82
2023-05-25T00:53:31.489Z,1.15
2023-05-25T00:54:31.556Z,1.07
2023-05-25T00:55:31.616Z,1.03
2023-05-25T00:56:31.693Z,1.22
2023-05-25T00:57:31.734Z,1.04
2023-05-25T00:58:31.793Z,1.13
2023-05-25T00:59:31.856Z,1.33
2023-05-25T01:00:31.902Z,1.28
2023-05-25T01:01:31.983Z,1.16
2023-05-25T01:02:32.095Z,1.04
2023-05-25T01:03:32.202Z,1.05
2023-05-25T01:04:32.162Z,1.25
2023-05-25T01:05:32.169Z,1.22
2023-05-25T01:06:32.281Z,1.20
2023-05-25T01:07:32.324Z,1.27
2023-05-25T01:08:32.399Z,1.33
2023-05-25T01:09:32.450Z,1.14
2023-05-25T01:10:32.549Z,1.40
2023-05-25T01:11:32.562Z,1.29
2023-05-25T01:12:32.606Z,1.10
2023-05-25T01:13:32.663Z,1.30
2023-05-25T01:14:32.729Z,0.95
2023-05-25T01:15:32.816Z,0.98
2023-05-25T01:16:32.925Z,1.17
2023-05-25T01:17:32.942Z,1.03
2023-05-25T01:18:32.989Z,0.94
2023-05-25T01:19:33.019Z,0.96
2023-05-25T01:20:33.133Z,1.24
2023-05-25T01:21:33.135Z,1.12
2023-05-25T01:22:33.190Z,1.30
2023-05-25T01:23:33.266Z,1.24
2023-05-25T01:24:33.319Z,1.11
2023-05-25T01:25:33.418Z,1.13
2023-05-25T01:26:33.462Z,1.51
2023-05-25T01:27:33.496Z,1.14
2023-05-25T01:28:33.538Z,0.83
2023-05-25T01:29:33.622Z,1.10
2023-05-25T01:30:33.655Z,0.84
2023-05-25T01:31:33.782Z,2.31
2023-05-25T01:32:33.847Z,1.11
2023-05-25T01:33:33.874Z,1.12
2023-05-25T01:34:33.897Z,1.24
2023-05-25T01:35:33.964Z,1.17
2023-05-25T01:36:33.992Z,1.36
2023-05-25T01:37:34.112Z,1.11
2023-05-25T01:38:34.151Z,1.25
2023-05-25T01:39:34.214Z,1.24
2023-05-25T01:40:34.239Z,1.03
2023-05-25T01:41:34.289Z,1.28
2023-05-25T01:42:34.437Z,1.07
2023-05-25T01:43:34.453Z,1.22
2023-05-25T01:44:34.483Z,0.87
2023-05-25T01:45:34.540Z,1.36
2023-05-25T01:46:34.645Z,1.20
2023-05-25T01:47:34.705Z,1.17
2023-05-25T01:48:34.706Z,1.11
2023-05-25T01:49:34.783Z,1.10
2023-05-25T01:50:34.826Z,1.14
2023-05-25T01:51:34.885Z,1.22
2023-05-25T01:52:34.954Z,1.43
2023-05-25T01:53:35.030Z,1.46
2023-05-25T01:54:35.051Z,1.02
2023-05-25T01:55:35.116Z,1.18
2023-05-25T01:56:35.164Z,1.14
2023-05-25T01:57:35.247Z,1.15
2023-05-25T01:58:35.305Z,1.41
2023-05-25T01:59:35.344Z,1.12
2023-05-25T02:00:35.392Z,1.45
2023-05-25T02:01:35.558Z,1.24
2023-05-25T02:02:35.566Z,1.28
2023-05-25T02:03:35.618Z,1.11
2023-05-25T02:04:35.718Z,1.06
2023-05-25T02:05:35.724Z,1.19
2023-05-25T02:06:35.770Z,1.20
2023-05-25T02:07:35.852Z,1.11
2023-05-25T02:08:35.905Z,1.11
2023-05-25T02:09:35.968Z,1.18
2023-05-25T02:10:35.998Z,1.23
2023-05-25T02:11:36.061Z,1.05
2023-05-25T02:12:36.123Z,0.94
2023-05-25T02:13:36.192Z,1.15
2023-05-25T02:14:36.231Z,1.13
2023-05-25T02:15:36.349Z,1.24
2023-05-25T02:16:36.356Z,1.03
2023-05-25T02:17:36.397Z,1.27
2023-05-25T02:18:36.451Z,1.30
2023-05-25T02:19:36.496Z,1.17
2023-05-25T02:20:36.593Z,1.03
2023-05-25T02:21:36.636Z,1.05
2023-05-25T02:22:36.689Z,1.09
2023-05-25T02:23:36.739Z,1.02
2023-05-25T02:24:36.803Z,0.85
2023-05-25T02:25:36.821Z,1.20
2023-05-25T02:26:36.901Z,1.13
2023-05-25T02:27:37.040Z,1.19
2023-05-25T02:28:37.003Z,1.17
2023-05-25T02:29:37.084Z,1.35
2023-05-25T02:30:37.136Z,1.20
2023-05-25T02:31:37.216Z,1.22
2023-05-25T02:32:37.271Z,1.37
2023-05-25T02:33:37.288Z,1.33
2023-05-25T02:34:37.335Z,1.10
2023-05-25T02:35:37.423Z,1.13
2023-05-25T02:36:37.502Z,1.28
2023-05-25T02:37:37.521Z,1.30
2023-05-25T02:38:37.597Z,1.17
2023-05-25T02:39:37.658Z,1.08
2023-05-25T02:40:37.689Z,1.40
2023-05-25T02:41:37.789Z,1.46
2023-05-25T02:42:37.819Z,1.12
2023-05-25T02:43:37.892Z,1.17
2023-05-25T02:44:37.975Z,1.47
2023-05-25T02:45:38.024Z,1.23
2023-05-25T02:46:38.132Z,1.21
2023-05-25T02:47:38.166Z,1.00
2023-05-25T02:48:38.190Z,1.08
2023-05-25T02:49:38.229Z,0.98
2023-05-25T02:50:38.285Z,1.25
2023-05-25T02:51:38.360Z,1.44
2023-05-25T02:52:38.432Z,1.28
2023-05-25T02:53:38.518Z,1.31
2023-05-25T02:54:38.541Z,1.00
2023-05-25T02:55:38.632Z,1.09
2023-05-25T02:56:38.672Z,1.32
2023-05-25T02:57:38.733Z,1.24
2023-05-25T02:58:38.856Z,1.16
2023-05-25T02:59:38.870Z,1.15
2023-05-25T03:00:38.933Z,0.99
2023-05-25T03:01:38.989Z,1.04
2023-05-25T03:02:39.188Z,1.38
2023-05-25T03:03:39.180Z,1.23
2023-05-25T03:04:39.147Z,1.25
2023-05-25T03:05:39.197Z,0.98
2023-05-25T03:06:39.289Z,1.17
2023-05-25T03:07:39.340Z,1.28
2023-05-25T03:08:39.401Z,1.24
2023-05-25T03:09:39.438Z,1.49
2023-05-25T03:10:39.508Z,1.31
2023-05-25T03:11:39.555Z,0.98
2023-05-25T03:12:39.620Z,1.18
2023-05-25T03:13:39.680Z,1.41
2023-05-25T03:14:39.749Z,1.17
2023-05-25T03:15:39.794Z,1.13
2023-05-25T03:16:39.934Z,1.23
2023-05-25T03:17:40.598Z,1.29
2023-05-25T03:18:40.061Z,1.28
2023-05-25T03:19:40.048Z,1.23
2023-05-25T03:20:40.221Z,0.91
2023-05-25T03:21:40.167Z,1.09
2023-05-25T03:22:40.213Z,1.33
2023-05-25T03:23:40.290Z,1.21
2023-05-25T03:24:40.307Z,0.97
2023-05-25T03:25:40.397Z,0.96
2023-05-25T03:26:40.426Z,1.46
2023-05-25T03:27:40.516Z,1.57
2023-05-25T03:28:40.576Z,1.08
2023-05-25T03:29:40.611Z,1.29
2023-05-25T03:30:40.660Z,0.94
2023-05-25T03:31:40.814Z,1.02
2023-05-25T03:32:40.824Z,1.08
2023-05-25T03:33:40.843Z,1.07
2023-05-25T03:34:40.912Z,1.29
2023-05-25T03:35:40.951Z,1.18
2023-05-25T03:36:41.018Z,1.27
2023-05-25T03:37:41.069Z,1.21
2023-05-25T03:38:41.136Z,1.58
2023-05-25T03:39:41.190Z,1.22
2023-05-25T03:40:41.250Z,1.19
2023-05-25T03:41:41.296Z,1.37
2023-05-25T03:42:41.471Z,1.29
2023-05-25T03:43:41.445Z,1.24
2023-05-25T03:44:41.504Z,1.04
2023-05-25T03:45:41.642Z,1.26
2023-05-25T03:46:41.685Z,1.38
2023-05-25T03:47:41.720Z,1.33
2023-05-25T03:48:41.714Z,1.46
2023-05-25T03:49:41.789Z,0.97
2023-05-25T03:50:41.862Z,1.15
2023-05-25T03:51:41.898Z,1.15
2023-05-25T03:52:41.943Z,1.01
2023-05-25T03:53:42.022Z,1.18
2023-05-25T03:54:42.062Z,1.16
2023-05-25T03:55:42.274Z,1.31
2023-05-25T03:56:42.173Z,0.90
2023-05-25T03:58:31.224Z,1.37
2023-05-25T03:59:31.230Z,1.51
2023-05-25T04:00:31.286Z,1.42
2023-05-25T04:01:31.286Z,0.98
2023-05-25T04:02:31.362Z,1.21
2023-05-25T04:03:31.420Z,1.28
2023-05-25T04:04:31.257Z,1.02
2023-05-25T04:05:31.240Z,1.41
2023-05-25T04:06:31.235Z,1.25
2023-05-25T04:07:31.260Z,1.34
2023-05-25T04:08:31.213Z,1.11
2023-05-25T04:09:31.228Z,1.39
2023-05-25T04:10:31.196Z,1.01
2023-05-25T04:11:31.219Z,1.19
2023-05-25T04:12:31.213Z,0.98
2023-05-25T04:13:31.181Z,1.31
2023-05-25T04:14:31.197Z,1.31
2023-05-25T04:15:31.173Z,0.97
2023-05-25T04:16:31.224Z,1.23
2023-05-25T04:17:31.182Z,1.34
2023-05-25T04:18:31.162Z,1.06
2023-05-25T04:19:31.154Z,0.97
2023-05-25T04:20:31.174Z,1.10
2023-05-25T04:21:31.144Z,1.15
2023-05-25T04:22:31.155Z,0.92
2023-05-25T04:23:31.138Z,1.34
2023-05-25T04:24:31.107Z,1.23
2023-05-25T04:25:31.121Z,1.14
2023-05-25T04:26:31.104Z,1.54
2023-05-25T04:27:31.104Z,1.07
2023-05-25T04:28:31.100Z,0.86
2023-05-25T04:29:31.091Z,1.20
2023-05-25T04:30:31.092Z,1.24
2023-05-25T04:31:31.152Z,1.51
2023-05-25T04:32:31.089Z,1.20
2023-05-25T04:33:31.124Z,1.15
2023-05-25T04:34:31.068Z,0.99
2023-05-25T04:35:31.061Z,1.14
2023-05-25T04:36:31.032Z,1.47
2023-05-25T04:37:31.069Z,1.51
2023-05-25T04:38:31.117Z,1.37
2023-05-25T04:39:31.231Z,1.02
2023-05-25T04:40:31.213Z,1.06
2023-05-25T04:41:31.231Z,1.15
2023-05-25T04:42:31.275Z,1.22
2023-05-25T04:43:31.351Z,1.35
2023-05-25T04:44:31.403Z,1.23
2023-05-25T04:45:31.509Z,1.14
2023-05-25T04:46:31.544Z,0.91
2023-05-25T04:47:31.611Z,1.28
2023-05-25T04:48:31.608Z,1.17
2023-05-25T04:49:31.661Z,1.23
2023-05-25T04:50:31.711Z,1.08
2023-05-25T04:51:31.757Z,1.14
2023-05-25T04:52:31.843Z,1.29
2023-05-25T04:53:31.863Z,1.60
2023-05-25T04:54:32.003Z,1.04
2023-05-25T04:55:32.000Z,1.18
2023-05-25T04:56:32.009Z,1.03
2023-05-25T04:57:32.092Z,1.01
2023-05-25T04:58:32.144Z,1.14
2023-05-25T04:59:32.192Z,1.10
2023-05-25T05:00:32.259Z,0.94
2023-05-25T05:01:32.369Z,1.18
2023-05-25T05:02:32.458Z,1.13
2023-05-25T05:03:32.472Z,1.16
2023-05-25T05:04:32.514Z,1.11
2023-05-25T05:05:32.579Z,1.12
2023-05-25T05:06:32.648Z,1.40
2023-05-25T05:07:32.658Z,1.15
2023-05-25T05:08:32.725Z,1.06
2023-05-25T05:09:33.411Z,1.27
2023-05-25T05:10:32.970Z,1.15
2023-05-25T05:11:32.910Z,1.12
2023-05-25T05:12:32.964Z,1.02
2023-05-25T05:13:33.049Z,1.12
2023-05-25T05:14:33.142Z,1.26
2023-05-25T05:15:33.161Z,1.12
2023-05-25T05:16:33.300Z,1.22
2023-05-25T05:17:33.355Z,1.45
2023-05-25T05:18:33.342Z,1.26
2023-05-25T05:19:33.398Z,1.27
2023-05-25T05:20:33.525Z,1.38
2023-05-25T05:21:33.555Z,1.19
2023-05-25T05:22:33.611Z,0.94
2023-05-25T05:23:33.628Z,1.25
2023-05-25T05:24:33.735Z,1.43
2023-05-25T05:25:33.770Z,1.29
2023-05-25T05:26:41.224Z,1.13
2023-05-25T05:27:34.816Z,1.16
2023-05-25T05:28:33.799Z,1.39
2023-05-25T05:29:33.778Z,1.28
2023-05-25T05:30:33.793Z,1.22
2023-05-25T05:31:33.879Z,1.12
2023-05-25T05:32:33.798Z,1.01
2023-05-25T05:33:33.902Z,1.01
2023-05-25T05:34:33.779Z,1.07
2023-05-25T05:35:33.862Z,1.19
2023-05-25T05:36:45.139Z,1.10
2023-05-25T05:38:01.590Z,1.39
2023-05-25T05:39:01.476Z,1.31
2023-05-25T05:40:01.450Z,0.98
2023-05-25T05:41:01.479Z,1.25
2023-05-25T05:42:01.467Z,1.31
2023-05-25T05:43:01.463Z,0.79
2023-05-25T05:44:01.456Z,1.34
2023-05-25T05:45:01.460Z,1.05
2023-05-25T05:46:01.498Z,1.09
2023-05-25T05:47:01.948Z,1.40
2023-05-25T05:48:01.506Z,1.23
2023-05-25T05:49:01.445Z,1.28
2023-05-25T05:50:01.438Z,1.34
2023-05-25T05:51:01.449Z,1.30
2023-05-25T05:52:01.418Z,1.37
2023-05-25T05:53:01.389Z,1.38
2023-05-25T05:54:01.452Z,1.51
2023-05-25T05:55:01.430Z,1.18
2023-05-25T05:56:01.403Z,1.32
2023-05-25T05:57:01.361Z,1.27
2023-05-25T05:58:01.393Z,1.19
2023-05-25T05:59:01.353Z,1.40
2023-05-25T06:00:01.325Z,1.39
2023-05-25T06:01:01.311Z,1.19
2023-05-25T06:02:01.337Z,1.11
2023-05-25T06:03:01.429Z,1.30
2023-05-25T06:04:01.324Z,1.11
2023-05-25T06:05:01.346Z,1.13
2023-05-25T06:06:01.366Z,1.39
2023-05-25T06:07:01.329Z,1.54
2023-05-25T06:08:01.288Z,0.97
2023-05-25T06:09:01.301Z,1.09
2023-05-25T06:10:01.284Z,1.08
2023-05-25T06:11:01.264Z,1.35
2023-05-25T06:12:01.261Z,1.26
2023-05-25T06:13:01.239Z,1.49
2023-05-25T06:14:01.252Z,1.17
2023-05-25T06:15:01.249Z,1.28
2023-05-25T06:16:01.271Z,1.45
2023-05-25T06:17:01.395Z,1.12
2023-05-25T06:18:01.411Z,1.88
2023-05-25T06:19:01.492Z,1.48
2023-05-25T06:20:01.547Z,1.31
2023-05-25T06:21:01.540Z,1.51
2023-05-25T06:22:01.594Z,1.47
2023-05-25T06:23:01.634Z,1.57
2023-05-25T06:24:01.688Z,1.07
2023-05-25T06:25:01.789Z,1.33
2023-05-25T06:26:01.792Z,1.38
2023-05-25T06:27:01.881Z,1.09
2023-05-25T06:28:01.957Z,1.32
2023-05-25T06:29:02.023Z,1.31
2023-05-25T06:30:02.097Z,1.28
2023-05-25T06:31:02.119Z,1.23
2023-05-25T06:32:02.260Z,1.04
2023-05-25T06:33:02.271Z,1.64
2023-05-25T06:34:02.292Z,1.08
2023-05-25T06:35:02.356Z,1.59
2023-05-25T06:36:02.411Z,1.24
2023-05-25T06:37:02.465Z,1.13
2023-05-25T06:38:02.507Z,1.20
2023-05-25T06:39:02.578Z,1.30
2023-05-25T06:40:02.597Z,1.35
2023-05-25T06:41:02.674Z,1.38
2023-05-25T06:42:02.699Z,1.32
2023-05-25T06:43:02.748Z,1.15
2023-05-25T06:44:02.803Z,1.38
2023-05-25T06:45:02.864Z,1.40
2023-05-25T06:46:03.090Z,1.35
2023-05-25T06:47:02.975Z,1.32
2023-05-25T06:48:03.079Z,1.41
2023-05-25T06:49:03.108Z,1.48
2023-05-25T06:50:03.117Z,1.37
2023-05-25T06:51:03.170Z,1.32
2023-05-25T06:52:03.219Z,1.47
2023-05-25T06:53:03.285Z,1.21
2023-05-25T06:54:03.320Z,1.21
2023-05-25T06:55:03.440Z,1.14
2023-05-25T06:56:03.442Z,1.49
2023-05-25T06:57:03.508Z,1.03
2023-05-25T06:58:03.582Z,1.14
2023-05-25T06:59:03.880Z,1.41
2023-05-25T07:00:03.699Z,1.52
2023-05-25T07:01:03.776Z,1.35
2023-05-25T07:02:03.787Z,1.45
2023-05-25T07:03:03.942Z,2.26
2023-05-25T07:04:03.895Z,1.54
2023-05-25T07:05:04.008Z,1.34
2023-05-25T07:06:04.040Z,1.07
2023-05-25T07:07:04.109Z,1.04
2023-05-25T07:08:04.141Z,1.27
2023-05-25T07:09:04.192Z,1.59
2023-05-25T07:10:04.270Z,1.23
2023-05-25T07:11:04.334Z,1.37
2023-05-25T07:12:04.358Z,1.37
2023-05-25T07:13:04.397Z,1.48
2023-05-25T07:14:04.510Z,1.29
2023-05-25T07:15:04.493Z,1.32
2023-05-25T07:16:04.611Z,1.26
2023-05-25T07:17:04.624Z,1.26
2023-05-25T07:18:04.708Z,1.08
2023-05-25T07:19:04.720Z,1.43
2023-05-25T07:20:04.847Z,1.36
2023-05-25T07:21:04.866Z,1.05
2023-05-25T07:22:04.896Z,1.42
2023-05-25T07:23:04.972Z,0.98
2023-05-25T07:24:04.994Z,1.28
2023-05-25T07:25:05.062Z,1.32
2023-05-25T07:26:06.071Z,1.21
2023-05-25T07:27:05.176Z,1.34
2023-05-25T07:28:05.217Z,1.28
2023-05-25T07:29:05.274Z,1.13
2023-05-25T07:30:05.300Z,1.24
2023-05-25T07:31:05.379Z,1.35
2023-05-25T07:32:05.449Z,1.22
2023-05-25T07:33:05.535Z,1.16
2023-05-25T07:34:05.544Z,1.53
2023-05-25T07:35:05.585Z,1.34
2023-05-25T07:36:05.613Z,1.33
2023-05-25T07:37:05.693Z,1.14
2023-05-25T07:38:05.769Z,1.41
2023-05-25T07:39:05.805Z,1.64
2023-05-25T07:40:05.824Z,1.17
2023-05-25T07:41:05.899Z,1.43
2023-05-25T07:42:05.992Z,1.30
2023-05-25T07:43:08.272Z,1.48
2023-05-25T07:44:06.121Z,1.44
2023-05-25T07:45:06.180Z,1.55
2023-05-25T07:46:06.234Z,1.38
2023-05-25T07:47:06.380Z,1.26
2023-05-25T07:48:06.396Z,1.34
2023-05-25T07:49:06.382Z,1.37
2023-05-25T07:50:06.443Z,0.98
2023-05-25T07:51:06.487Z,1.29
2023-05-25T07:52:06.543Z,1.65
2023-05-25T07:53:06.586Z,1.34
2023-05-25T07:54:06.675Z,1.32
2023-05-25T07:55:06.764Z,1.50
2023-05-25T07:56:07.948Z,1.21
2023-05-25T07:57:06.793Z,1.57
2023-05-25T07:58:06.748Z,1.56
2023-05-25T07:59:06.777Z,1.20
2023-05-25T08:00:06.750Z,1.37
2023-05-25T08:01:06.780Z,1.57
2023-05-25T08:02:06.816Z,1.32
2023-05-25T08:03:06.801Z,1.31
2023-05-25T08:04:06.796Z,1.40
2023-05-25T08:05:06.786Z,1.34
2023-05-25T08:06:06.694Z,1.49
2023-05-25T08:07:06.698Z,1.51
2023-05-25T08:08:06.688Z,1.13
2023-05-25T08:09:06.677Z,1.18
2023-05-25T08:10:06.728Z,1.36
2023-05-25T08:11:06.675Z,1.58
2023-05-25T08:13:06.690Z,1.59
2023-05-25T08:14:06.701Z,1.28
2023-05-25T08:15:06.707Z,1.47
2023-05-25T08:16:06.669Z,1.38
2023-05-25T08:17:06.721Z,1.48
2023-05-25T08:18:06.838Z,1.34
2023-05-25T08:19:06.658Z,1.24
2023-05-25T08:20:06.648Z,1.28
2023-05-25T08:21:06.632Z,0.99
2023-05-25T08:22:06.579Z,1.26
2023-05-25T08:23:06.578Z,1.37
2023-05-25T08:24:06.605Z,1.44
2023-05-25T08:25:06.596Z,1.48
2023-05-25T08:26:20.262Z,1.46
2023-05-25T08:27:07.574Z,1.31
2023-05-25T08:28:06.569Z,1.52
2023-05-25T08:29:06.582Z,1.33
2023-05-25T08:30:06.548Z,1.19
2023-05-25T08:31:06.618Z,1.65
2023-05-25T08:32:06.540Z,1.57
2023-05-25T08:33:06.573Z,1.33
2023-05-25T08:34:06.516Z,1.22
2023-05-25T08:35:06.526Z,1.13
2023-05-25T08:36:06.512Z,1.14
2023-05-25T08:37:06.589Z,1.48
2023-05-25T08:38:06.605Z,1.42
2023-05-25T08:39:06.672Z,1.25
2023-05-25T08:40:06.721Z,1.46
2023-05-25T08:41:06.771Z,1.70
2023-05-25T08:42:06.839Z,1.57
2023-05-25T08:43:06.892Z,1.60
2023-05-25T08:44:06.933Z,1.39
2023-05-25T08:45:07.003Z,1.51
2023-05-25T08:46:07.033Z,1.66
2023-05-25T08:47:07.084Z,1.55
2023-05-25T08:48:07.173Z,1.53
2023-05-25T08:49:07.258Z,1.58
2023-05-25T08:50:07.232Z,1.60
2023-05-25T08:51:10.122Z,1.49
2023-05-25T08:52:07.282Z,1.86
2023-05-25T08:53:07.295Z,1.70
2023-05-25T08:54:07.304Z,1.94
2023-05-25T08:55:07.256Z,1.83
2023-05-25T08:56:07.244Z,1.70
2023-05-25T08:57:07.217Z,1.59
2023-05-25T08:58:07.226Z,1.73
2023-05-25T08:59:07.268Z,2.15
2023-05-25T09:00:07.223Z,1.84
2023-05-25T09:01:07.215Z,1.99
2023-05-25T09:02:07.257Z,1.79
2023-05-25T09:03:07.309Z,2.06
2023-05-25T09:04:07.236Z,1.86
2023-05-25T09:05:07.181Z,2.03
2023-05-25T09:06:07.164Z,1.93
2023-05-25T09:07:10.784Z,2.08
2023-05-25T09:08:07.192Z,1.70
2023-05-25T09:09:07.132Z,1.96
2023-05-25T09:10:07.162Z,1.85
2023-05-25T09:11:07.779Z,1.60
2023-05-25T09:12:07.134Z,1.64
2023-05-25T09:13:20.525Z,1.73
2023-05-25T09:14:08.152Z,1.42
2023-05-25T09:15:07.110Z,1.98
2023-05-25T09:16:07.148Z,1.61
2023-05-25T09:17:07.093Z,1.70
2023-05-25T09:18:07.164Z,1.92
2023-05-25T09:19:07.102Z,1.60
2023-05-25T09:20:07.138Z,1.80
2023-05-25T09:21:07.102Z,2.05
2023-05-25T09:22:15.745Z,1.98
2023-05-25T09:23:08.171Z,2.09
2023-05-25T09:24:07.122Z,2.03
2023-05-25T09:25:07.154Z,1.72
2023-05-25T09:26:07.130Z,1.78
2023-05-25T09:27:07.145Z,1.95
2023-05-25T09:28:24.745Z,1.76
2023-05-25T09:29:08.120Z,1.60
2023-05-25T09:30:07.113Z,1.69
2023-05-25T09:31:07.109Z,1.56
2023-05-25T09:32:07.173Z,1.62
2023-05-25T09:33:07.127Z,1.27
2023-05-25T09:34:07.071Z,1.91
2023-05-25T09:35:07.091Z,1.87
2023-05-25T09:36:07.091Z,1.43
2023-05-25T09:37:07.230Z,1.95
2023-05-25T09:38:07.276Z,1.65
2023-05-25T09:39:07.384Z,1.48
2023-05-25T09:40:07.289Z,1.69
2023-05-25T09:41:07.297Z,1.43
2023-05-25T09:42:07.369Z,1.50
2023-05-25T09:43:07.482Z,1.95
2023-05-25T09:44:11.492Z,1.81
2023-05-25T09:45:07.458Z,2.25
2023-05-25T09:46:07.465Z,2.02
2023-05-25T09:47:07.459Z,2.15
2023-05-25T09:48:07.469Z,1.74
2023-05-25T09:49:07.445Z,2.28
2023-05-25T09:50:07.436Z,1.77
2023-05-25T09:51:07.427Z,2.04
2023-05-25T09:52:07.401Z,1.94
2023-05-25T09:53:07.393Z,2.05
2023-05-25T09:54:07.411Z,1.84
2023-05-25T09:55:07.404Z,1.95
2023-05-25T09:56:07.382Z,1.59
2023-05-25T09:57:07.422Z,1.62
2023-05-25T09:58:07.372Z,1.67
2023-05-25T09:59:07.405Z,1.53
2023-05-25T10:00:07.364Z,1.94
2023-05-25T10:01:07.389Z,1.63
2023-05-25T10:02:07.380Z,1.61
2023-05-25T10:03:07.382Z,2.01
2023-05-25T10:04:07.377Z,1.85
2023-05-25T10:05:07.398Z,1.94
2023-05-25T10:06:07.307Z,1.86
2023-05-25T10:07:07.315Z,1.74
2023-05-25T10:08:07.301Z,1.59
2023-05-25T10:09:07.313Z,1.94
2023-05-25T10:10:07.328Z,1.85
2023-05-25T10:11:07.334Z,1.67
2023-05-25T10:12:07.320Z,2.11
2023-05-25T10:13:07.339Z,1.99
2023-05-25T10:14:07.324Z,1.39
2023-05-25T10:15:07.360Z,1.99
2023-05-25T10:16:07.404Z,1.91
2023-05-25T10:17:07.376Z,1.99
2023-05-25T10:18:07.401Z,2.21
2023-05-25T10:19:07.373Z,1.64
2023-05-25T10:20:07.361Z,1.90
2023-05-25T10:21:07.672Z,2.19
2023-05-25T10:22:07.431Z,2.03
2023-05-25T10:23:07.483Z,1.97
2023-05-25T10:24:07.506Z,1.59
2023-05-25T10:25:07.465Z,2.27
2023-05-25T10:26:09.243Z,1.83
2023-05-25T10:27:18.563Z,1.97
2023-05-25T10:28:08.513Z,1.90
2023-05-25T10:29:07.528Z,1.77
2023-05-25T10:30:07.527Z,2.19
2023-05-25T10:31:07.528Z,1.52
2023-05-25T10:32:07.535Z,2.41
2023-05-25T10:33:07.530Z,1.95
2023-05-25T10:34:07.492Z,1.97
2023-05-25T10:35:07.470Z,2.56
2023-05-25T10:36:10.854Z,2.10
2023-05-25T10:37:07.476Z,2.18
2023-05-25T10:38:07.480Z,2.45
2023-05-25T10:39:08.943Z,2.12
2023-05-25T10:40:07.451Z,1.76
2023-05-25T10:41:07.468Z,2.70
2023-05-25T10:42:07.412Z,2.15
2023-05-25T10:43:07.424Z,2.49
2023-05-25T10:44:07.412Z,1.90
2023-05-25T10:45:07.423Z,2.03
2023-05-25T10:46:07.402Z,2.54
2023-05-25T10:47:07.443Z,2.05
2023-05-25T10:48:07.455Z,2.16
2023-05-25T10:49:07.379Z,1.89
2023-05-25T10:50:07.376Z,2.10
2023-05-25T10:51:09.363Z,2.22
2023-05-25T10:52:07.354Z,2.04
2023-05-25T10:53:07.365Z,2.02
2023-05-25T10:54:07.324Z,2.25
2023-05-25T10:55:07.341Z,2.11
2023-05-25T10:56:07.361Z,2.32
2023-05-25T10:57:07.350Z,1.68
2023-05-25T10:58:07.331Z,2.04
2023-05-25T10:59:07.333Z,2.39
2023-05-25T11:00:07.332Z,2.29
2023-05-25T11:01:07.419Z,1.60
2023-05-25T11:02:09.289Z,1.87
2023-05-25T11:03:07.342Z,2.31
2023-05-25T11:04:07.340Z,2.05
2023-05-25T11:05:07.268Z,2.03
2023-05-25T11:06:07.330Z,2.20
2023-05-25T11:07:07.380Z,1.90
2023-05-25T11:08:08.703Z,2.36
2023-05-25T11:09:07.510Z,1.77
2023-05-25T11:10:07.532Z,2.14
2023-05-25T11:11:07.626Z,2.09
2023-05-25T11:12:07.680Z,2.06
2023-05-25T11:13:07.751Z,1.91
2023-05-25T11:14:07.844Z,1.99
2023-05-25T11:15:07.827Z,2.58
2023-05-25T11:16:07.893Z,2.07
2023-05-25T11:17:08.249Z,1.92
2023-05-25T11:18:08.146Z,2.05
2023-05-25T11:19:08.058Z,2.33
2023-05-25T11:20:08.183Z,1.99
2023-05-25T11:21:08.170Z,2.21
2023-05-25T11:22:08.228Z,2.46
2023-05-25T11:23:08.295Z,2.55
2023-05-25T11:24:08.374Z,2.16
2023-05-25T11:25:08.465Z,2.62
2023-05-25T11:26:08.536Z,2.19
2023-05-25T11:27:08.529Z,2.02
2023-05-25T11:28:08.624Z,2.19
2023-05-25T11:29:08.667Z,1.75
2023-05-25T11:30:08.784Z,2.30
2023-05-25T11:31:08.813Z,2.42
2023-05-25T11:32:08.868Z,2.08
2023-05-25T11:33:09.133Z,2.38
2023-05-25T11:34:09.021Z,2.18
2023-05-25T11:35:09.040Z,2.19
2023-05-25T11:36:09.083Z,2.02
2023-05-25T11:37:10.436Z,2.16
2023-05-25T11:38:09.120Z,2.45
2023-05-25T11:39:20.558Z,1.97
2023-05-25T11:40:10.108Z,1.86
2023-05-25T11:41:09.089Z,2.29
2023-05-25T11:42:09.104Z,2.11
2023-05-25T11:43:09.097Z,2.51
2023-05-25T11:45:12.398Z,2.22
2023-05-25T11:46:12.500Z,2.98
2023-05-25T11:47:12.454Z,2.08
2023-05-25T11:48:12.497Z,2.52
2023-05-25T11:49:12.458Z,2.62
2023-05-25T11:50:12.410Z,2.24
2023-05-25T11:51:12.411Z,2.49
2023-05-25T11:52:12.417Z,2.53
2023-05-25T11:53:12.416Z,2.74
2023-05-25T11:54:12.413Z,2.49
2023-05-25T11:55:12.385Z,2.30
2023-05-25T11:56:12.562Z,2.45
2023-05-25T11:57:12.393Z,2.28
2023-05-25T11:58:12.371Z,2.36
2023-05-25T11:59:12.385Z,2.10
2023-05-25T12:00:12.407Z,2.15
2023-05-25T12:01:12.365Z,2.40
2023-05-25T12:02:12.351Z,1.95
2023-05-25T12:03:12.402Z,1.96
2023-05-25T12:04:12.369Z,2.04
2023-05-25T12:05:12.394Z,2.33
2023-05-25T12:06:12.320Z,2.20
2023-05-25T12:07:12.297Z,2.06
2023-05-25T12:08:12.333Z,1.96
2023-05-25T12:09:12.318Z,2.17
2023-05-25T12:10:12.559Z,1.83
2023-05-25T12:11:12.829Z,2.41
2023-05-25T12:12:12.417Z,2.12
2023-05-25T12:13:12.478Z,1.81
2023-05-25T12:14:12.552Z,2.63
2023-05-25T12:15:12.593Z,2.74
2023-05-25T12:16:12.676Z,1.88
2023-05-25T12:17:12.796Z,1.86
2023-05-25T12:18:12.807Z,2.61
2023-05-25T12:19:12.938Z,2.19
2023-05-25T12:20:12.944Z,2.10
2023-05-25T12:21:12.905Z,2.41
2023-05-25T12:22:12.933Z,1.87
2023-05-25T12:23:13.025Z,2.29
2023-05-25T12:24:13.043Z,1.91
2023-05-25T12:25:13.118Z,2.13
2023-05-25T12:26:13.383Z,2.66
2023-05-25T12:27:13.960Z,2.97
2023-05-25T12:28:13.215Z,2.36
2023-05-25T12:29:13.303Z,2.38
2023-05-25T12:30:13.349Z,2.41
2023-05-25T12:31:13.439Z,2.20
2023-05-25T12:32:13.439Z,2.60
2023-05-25T12:33:13.570Z,1.77
2023-05-25T12:34:13.579Z,2.35
2023-05-25T12:35:13.570Z,2.86
2023-05-25T12:36:13.580Z,2.28
2023-05-25T12:37:13.681Z,1.71
2023-05-25T12:38:13.699Z,2.44
2023-05-25T12:39:13.731Z,2.69
2023-05-25T12:40:13.779Z,2.88
2023-05-25T12:41:13.791Z,2.38
2023-05-25T12:42:13.854Z,2.56
2023-05-25T12:43:13.887Z,1.95
2023-05-25T12:44:14.904Z,2.21
2023-05-25T12:45:13.895Z,2.34
2023-05-25T12:46:13.876Z,2.34
2023-05-25T12:47:13.878Z,2.15
2023-05-25T12:48:13.930Z,2.20
2023-05-25T12:49:13.857Z,2.59
2023-05-25T12:50:13.935Z,2.47
2023-05-25T12:51:13.853Z,2.63
2023-05-25T12:52:13.818Z,2.34
2023-05-25T12:53:13.859Z,2.50
2023-05-25T12:54:13.803Z,2.41
2023-05-25T12:55:13.814Z,2.44
2023-05-25T12:56:13.793Z,2.47
2023-05-25T12:57:13.801Z,2.57
2023-05-25T12:58:13.788Z,2.01
2023-05-25T12:59:13.786Z,1.97
2023-05-25T13:00:13.774Z,2.77
2023-05-25T13:01:13.785Z,2.21
2023-05-25T13:02:13.796Z,2.90
2023-05-25T13:03:13.906Z,2.45
2023-05-25T13:04:13.880Z,2.79
2023-05-25T13:05:13.897Z,2.11
2023-05-25T13:06:13.885Z,2.36
2023-05-25T13:07:13.881Z,2.10
2023-05-25T13:08:13.898Z,2.29
2023-05-25T13:09:13.903Z,2.45
2023-05-25T13:10:13.979Z,2.20
2023-05-25T13:11:13.971Z,2.47
2023-05-25T13:12:13.927Z,2.55
2023-05-25T13:13:14.003Z,2.53
2023-05-25T13:14:13.962Z,2.24
2023-05-25T13:15:14.010Z,2.36
2023-05-25T13:16:14.077Z,2.80
2023-05-25T13:17:13.983Z,2.43
2023-05-25T13:18:14.011Z,2.78
2023-05-25T13:19:14.006Z,2.58
2023-05-25T13:20:14.038Z,2.24
2023-05-25T13:21:14.039Z,2.61
2023-05-25T13:22:13.985Z,2.80